Aktuální počasí v Česku a ve světě - METAR

Seznam meteostanic umístěných nejčasteji na letišti v ČR a ve světě

Vyhledat místa podle abecedy:
A B C D E F G H I J K L M N O P Q R S T U V W X Y Z

Filtrovat:

ID stanice:
a/nebo
Název místa (fulltext):
 
Místo (ID)Naposledy načteno 
Antwerp (EBAW) 22.06.2024 18:50 UTC Zobrazit METAR
EBAW 221850Z 11003KT 9999 FEW028 19/14 Q1015 NOSIG
Apia (NSFA) 22.06.2024 18:00 UTC Zobrazit METAR
NSFA 221800Z 05011KT 9999 FEW024 BKN290 25/23 Q1012
Aruba I (TNCA) 22.06.2024 19:00 UTC Zobrazit METAR
TNCA 221900Z 09018KT 070V130 9999 SCT025 32/23 Q1011 NOSIG
Ascension I. (FHAW) 22.06.2024 00:50 UTC Zobrazit METAR
FHAW 220050Z 13015KT 9999 FEW030 BKN050 25/18 Q1015 NOSIG RMK BLU BLU
Ashgabat (UTAA) 22.06.2024 05:00 UTC Zobrazit METAR
UTAA 220500Z 29012KT 9999 FEW050 SCT100 31/15 Q1006 R88/CLRD70 NOSIG
Asmara (HHAS) 03.02.2015 17:00 UTC Zobrazit METAR
HHAS 031700Z 27004KT CAVOK 15/06 Q1028 NOSIG
Astana (UACC) Zatím nenačteno  
Astrakhan (URWA) Zatím nenačteno  
Asuncion (SGAS) 22.06.2024 19:00 UTC Zobrazit METAR
SGAS 221900Z 02010KT 9999 FEW027 BKN070 31/17 Q1005
Athens (LGAV) 22.06.2024 18:50 UTC Zobrazit METAR
LGAV 221850Z 02011KT CAVOK 28/07 Q1007 NOSIG
Baghdad (ORBS) 06.06.2012 04:00 UTC  
Bagram (KQSA) 11.12.2022 19:00 UTC Zobrazit METAR
KQSA 111900Z VRB06KT 7SM BKN050 09/04 A2991 RMK SLP126 TOO940044
Bahrain (OBBI) 22.06.2024 19:00 UTC Zobrazit METAR
OBBI 221900Z 12009KT CAVOK 35/28 Q0997 NOSIG
Baku (UBBB) 22.06.2024 19:00 UTC Zobrazit METAR
UBBB 221900Z VRB02KT CAVOK 23/17 Q1009 NOSIG
Bamako (GABS) 22.06.2024 19:00 UTC Zobrazit METAR
GABS 221900Z 24004KT CAVOK 28/22 Q1013 NOSIG
Bandar Seri Begawan (WBSB) 22.06.2024 19:00 UTC Zobrazit METAR
WBSB 221900Z 30001KT 9999 -RA FEW004 BKN150 24/24 Q1011 NOSIG
Bangkok (VTBD) 22.06.2024 19:00 UTC Zobrazit METAR
VTBD 221900Z 24007KT 9999 FEW020 30/22 Q1005 NOSIG
Bangui (FEFF) 22.06.2024 14:30 UTC Zobrazit METAR
FEFF 221430Z 28007KT 220V310 9999 SCT026 33/24 Q1009 NOSIG
Banja Luka (LQBK) 22.06.2024 13:00 UTC Zobrazit METAR
LQBK 221300Z 32009KT 9999 FEW037 33/22 Q1008 NOSIG
Banjul (GBYD) 22.06.2024 19:00 UTC Zobrazit METAR
GBYD 221900Z 24008KT 9999 BKN012 SCT130 29/24 1010
Barbados (TBPB) 22.06.2024 19:00 UTC Zobrazit METAR
TBPB 221900Z 08018KT 9999 FEW018 31/26 Q1011 NOSIG
Barcelona (LEBL) 22.06.2024 19:00 UTC Zobrazit METAR
LEBL 221900Z 07010KT 050V110 9999 SCT011 BKN020 22/19 Q1016 NOSIG
Bari (LIBD) 22.06.2024 18:50 UTC Zobrazit METAR
LIBD 221850Z 32004KT 290V350 CAVOK 25/22 Q1008
Basle-Mulhouse (LFSB) 22.06.2024 19:00 UTC Zobrazit METAR
LFSB 221900Z AUTO 11005KT 070V130 9999 FEW052 16/13 Q1016 TEMPO 4000 SHRA SCT020CB
Basse-Terre (TFFB) Zatím nenačteno  
Basseterre (TKPK) 22.06.2024 19:00 UTC Zobrazit METAR
TKPK 221900Z 06013KT 9999 FEW021 31/25 Q1014
Beijing (ZBAA) Zatím nenačteno  
Beirut (OLBA) 22.06.2024 19:00 UTC Zobrazit METAR
OLBA 221900Z 14005KT 8000 FEW023 27/20 Q1005 NOSIG
Belfast (EGAA) 22.06.2024 18:50 UTC Zobrazit METAR
EGAA 221850Z AUTO 22006KT 9999 OVC023 17/13 Q1012
Belgrade (LYBE) 22.06.2024 19:00 UTC Zobrazit METAR
LYBE 221900Z 25014KT 220V280 9999 SCT040 28/21 Q1007 NOSIG
Belize City (MZBZ) 22.06.2024 19:00 UTC Zobrazit METAR
MZBZ 221900Z 16007KT 9999 FEW023 33/26 A2982 Q1010 NOSIG
Bergen (ENBR) 22.06.2024 17:50 UTC Zobrazit METAR
ENBR 221750Z 17004KT 150V220 9999 FEW024 BKN045 15/15 Q1009 NOSIG RMK WIND 1200FT 17006KT
Berlin (EDDT) 09.11.2020 06:50 UTC Zobrazit METAR
EDDT 090650Z 09006KT 050V120 3000 BR OVC003 06/05 Q1027
Bermuda Is (TXKF) 22.06.2024 18:55 UTC Zobrazit METAR
TXKF 221855Z 05008KT 020V080 9999 FEW033 26/18 Q1022
Bern (LSZB) 22.06.2024 18:50 UTC Zobrazit METAR
LSZB 221850Z 11004KT 9999 FEW050 SCT090 14/12 Q1017
Billund (EKBI) 22.06.2024 18:50 UTC Zobrazit METAR
EKBI 221850Z AUTO 28010KT 260V320 9999 BKN013/// 14/12 Q1011
Birmingham (EGBB) 22.06.2024 18:50 UTC Zobrazit METAR
EGBB 221850Z 26008KT 220V290 9999 SCT046 20/09 Q1014
Bishkek (UAFM) Zatím nenačteno  
Bissau (GGOV) 22.06.2024 19:00 UTC Zobrazit METAR
GGOV 221900Z VRB02KT 9000 FEW012 28/23 Q1011 NOSIG
Bogota (SKBO) 22.06.2024 18:00 UTC Zobrazit METAR
SKBO 221800Z 25004KT 9999 FEW015 SCT025 BKN080 19/11 Q1027 NOSIG
Bologna (LIPE) 22.06.2024 18:50 UTC Zobrazit METAR
LIPE 221850Z 21008KT CAVOK 25/13 Q1007
Bordeaux (LFBD) 22.06.2024 19:00 UTC Zobrazit METAR
LFBD 221900Z AUTO 27009KT 9999 SCT036 BKN042 OVC062 16/14 Q1021 TEMPO 3000 -RA BKN008
Bornholm (EKRN) 22.06.2024 18:50 UTC Zobrazit METAR
EKRN 221850Z AUTO 27020KT 9999 OVC011/// 15/13 Q1007
Brasilia (SBBR) 22.06.2024 19:00 UTC Zobrazit METAR
SBBR 221900Z 09009KT 060V120 CAVOK 25/10 Q1019
Bratislava (LZIB) 22.06.2024 19:00 UTC Zobrazit METAR
LZIB 221900Z 34005KT CAVOK 22/15 Q1011 NOSIG
Brazzaville (FCBB) 22.06.2024 16:00 UTC Zobrazit METAR
FCBB 221600Z 29004KT 260V330 7000 FEW027 29/21 Q1012 NOSIG
Bremen (EDDW) 22.06.2024 18:50 UTC Zobrazit METAR
EDDW 221850Z AUTO 29007KT 9999 SCT043 18/15 Q1013 NOSIG
Brest (UMBB) Zatím nenačteno  
Brest (LFRB) 22.06.2024 19:00 UTC Zobrazit METAR
LFRB 221900Z AUTO 20009KT 9999 OVC008 15/13 Q1018 TEMPO 2000 DZ OVC002
Brno (LKTB) 22.06.2024 19:00 UTC Zobrazit METAR
LKTB 221900Z 32005KT CAVOK 22/11 Q1012 NOSIG
Předchozí 1 2 3 4 ... 9 Další
Reklama